EST,Max TemperatureF,Mean TemperatureF,Min TemperatureF,Max Dew PointF,MeanDew PointF,Min DewpointF,Max Humidity, Mean Humidity, Min Humidity, Max Sea Level PressureIn, Mean Sea Level PressureIn, Min Sea Level PressureIn, Max VisibilityMiles, Mean VisibilityMiles, Min VisibilityMiles, Max Wind SpeedMPH, Mean Wind SpeedMPH, Max Gust SpeedMPH,PrecipitationIn, CloudCover, Events, WindDirDegrees
2012-12-1,60,48,35,43,37,34,100,75,39,30.43,30.38,30.35,10,7,0,6,0,,0.00,,Fog,5
2012-12-2,62,50,37,46,41,36,100,75,48,30.43,30.36,30.27,10,7,0,9,2,,0.00,,Fog,184
2012-12-3,69,60,51,54,51,45,94,78,53,30.30,30.26,30.23,10,10,7,8,3,,0.00,,,268
2012-12-4,69,58,48,54,52,46,94,83,56,30.34,30.26,30.19,10,8,0,10,2,,0.00,,Fog,197
2012-12-5,69,58,46,55,49,41,94,78,60,30.21,30.16,30.10,10,10,10,17,7,23,0.00,,Rain,309
2012-12-6,50,46,42,43,37,32,93,69,54,30.32,30.26,30.21,10,10,10,18,11,22,0.00,,,34
2012-12-7,64,54,44,59,51,41,94,81,64,30.21,30.12,30.00,10,10,7,13,7,17,0.00,,Rain,115
2012-12-8,64,58,53,61,55,52,94,89,73,30.07,29.99,29.94,10,7,0,10,4,,0.00,,Fog-Rain,237
2012-12-9,68,60,51,57,53,50,94,81,60,30.18,30.11,30.04,10,8,1,12,3,,0.00,,,181
2012-12-10,68,64,59,63,58,54,94,87,73,30.04,29.84,29.75,10,9,0,16,9,20,0.00,,Fog-Rain,197
2012-12-11,69,60,51,63,52,43,94,81,68,30.14,29.94,29.76,10,9,1,21,10,26,0.00,8,Rain,11
2012-12-12,52,50,48,47,45,41,87,82,69,30.28,30.22,30.13,10,8,4,28,17,34,0.34,8,Rain,33
2012-12-13,55,52,49,48,46,44,87,81,72,30.30,30.25,30.20,10,8,4,23,18,32,0.78,5,Rain,29
2012-12-14,54,45,36,46,42,36,99,83,62,30.35,30.29,30.25,10,9,1,13,8,17,0.00,0,,20
2012-12-15,57,46,35,52,44,35,100,88,63,30.30,30.22,30.11,10,7,0,10,2,,0.00,4,Fog,75
2012-12-16,59,56,54,57,55,53,99,96,84,30.11,30.01,29.91,10,8,1,12,5,16,0.69,8,Rain,191
2012-12-17,62,59,56,59,57,56,99,96,87,29.90,29.81,29.65,10,7,2,20,4,28,0.41,7,Rain,197
2012-12-18,64,57,51,55,51,40,96,79,64,29.86,29.70,29.62,10,10,10,17,10,23,0.01,3,Rain,268
2012-12-19,62,52,44,46,40,37,87,66,41,30.16,29.99,29.87,10,10,10,13,7,21,0.00,0,,301
2012-12-20,63,55,47,57,46,38,85,74,64,30.20,30.04,29.65,10,10,10,21,10,30,0.00,1,,103
2012-12-21,63,52,41,61,38,25,97,63,48,29.71,29.56,29.40,10,9,2,38,20,54,0.46,6,Rain,259
2012-12-22,48,44,39,32,28,26,68,55,43,30.07,29.90,29.71,10,10,10,24,14,34,0.00,0,,291
2012-12-23,53,45,38,37,31,25,75,59,34,30.15,30.08,30.04,10,10,10,12,5,,0.00,0,,254
2012-12-24,58,50,44,47,40,34,82,68,48,30.09,30.01,29.94,10,10,10,12,5,,0.00,4,,201
2012-12-25,54,50,47,47,45,42,88,81,74,30.16,30.06,29.93,10,10,10,18,6,22,0.00,4,,22
2012-12-26,63,56,50,61,53,45,97,87,74,30.11,29.75,29.41,10,9,2,22,15,32,2.51,7,Rain,137
2012-12-27,51,47,42,45,36,32,79,66,50,30.04,29.80,29.52,10,10,10,20,14,32,0.00,1,,291
2012-12-28,46,42,37,38,34,31,91,75,64,30.18,30.10,30.03,10,10,10,13,6,18,0.00,1,,343
2012-12-29,57,50,43,55,44,34,97,86,67,30.05,29.74,29.49,10,9,3,17,7,26,0.57,5,,353
2012-12-30,46,42,38,34,28,23,73,56,41,30.37,30.16,29.83,10,10,10,18,12,28,0.00,0,,310
2012-12-31,49,38,29,39,31,25,94,67,43,30.38,30.27,30.13,10,10,10,14,6,17,0.00,1,,247